createdAt,value
2023-02-18T00:01:40.247Z,9.20
2023-02-18T00:04:10.459Z,9.20
2023-02-18T00:06:40.670Z,9.20
2023-02-18T00:09:09.380Z,9.20
2023-02-18T00:11:39.070Z,9.20
2023-02-18T00:14:09.214Z,9.20
2023-02-18T00:16:37.246Z,9.20
2023-02-18T00:19:09.271Z,9.20
2023-02-18T00:21:38.857Z,9.20
2023-02-18T00:24:07.859Z,9.20
2023-02-18T00:26:36.395Z,9.20
2023-02-18T00:29:04.971Z,9.20
2023-02-18T00:31:35.269Z,9.20
2023-02-18T00:34:05.023Z,9.20
2023-02-18T00:36:35.171Z,9.20
2023-02-18T00:39:07.315Z,9.20
2023-02-18T00:41:36.114Z,9.20
2023-02-18T00:44:04.179Z,9.30
2023-02-18T00:46:33.536Z,9.30
2023-02-18T00:49:01.565Z,9.30
2023-02-18T00:51:29.721Z,9.20
2023-02-18T00:53:58.016Z,9.30
2023-02-18T00:56:27.395Z,9.30
2023-02-18T00:58:57.329Z,9.30
2023-02-18T01:01:25.396Z,9.30
2023-02-18T01:03:53.514Z,9.30
2023-02-18T01:06:22.282Z,9.30
2023-02-18T01:08:50.514Z,9.30
2023-02-18T01:11:18.875Z,9.30
2023-02-18T01:13:48.240Z,9.30
2023-02-18T01:16:17.139Z,9.30
2023-02-18T01:18:45.355Z,9.20
2023-02-18T01:21:13.532Z,9.30
2023-02-18T01:23:42.954Z,9.20
2023-02-18T01:26:11.918Z,9.20
2023-02-18T01:28:40.714Z,9.10
2023-02-18T01:31:13.707Z,9.10
2023-02-18T01:33:42.526Z,9.10
2023-02-18T01:36:12.053Z,9.00
2023-02-18T01:38:40.345Z,9.00
2023-02-18T01:41:08.411Z,8.90
2023-02-18T01:43:39.629Z,8.90
2023-02-18T01:46:18.336Z,8.80
2023-02-18T01:48:50.695Z,8.80
2023-02-18T01:51:21.146Z,8.80
2023-02-18T01:53:58.825Z,8.70
2023-02-18T01:56:31.945Z,8.70
2023-02-18T01:59:03.045Z,8.70
2023-02-18T02:01:33.489Z,8.70
2023-02-18T02:04:01.856Z,8.70
2023-02-18T02:06:29.872Z,8.60
2023-02-18T02:09:01.056Z,8.60
2023-02-18T02:11:59.638Z,8.60
2023-02-18T02:14:42.799Z,8.50
2023-02-18T02:17:18.399Z,8.50
2023-02-18T02:20:35.718Z,8.50
2023-02-18T02:23:51.131Z,8.40
2023-02-18T02:26:47.049Z,8.40
2023-02-18T02:29:46.534Z,8.40
2023-02-18T02:35:04.119Z,8.30
2023-02-18T02:37:39.592Z,8.30
2023-02-18T02:40:21.385Z,8.20
2023-02-18T02:43:02.752Z,8.20
2023-02-18T02:45:44.885Z,8.20
2023-02-18T02:48:22.643Z,8.20
2023-02-18T02:51:01.105Z,8.20
2023-02-18T02:53:34.542Z,8.20
2023-02-18T02:56:02.537Z,8.10
2023-02-18T02:58:30.577Z,8.10
2023-02-18T03:01:15.044Z,8.10
2023-02-18T03:04:12.621Z,8.10
2023-02-18T03:07:08.211Z,8.00
2023-02-18T03:09:49.545Z,8.00
2023-02-18T03:12:24.557Z,8.00
2023-02-18T03:14:59.706Z,8.00
2023-02-18T03:17:31.560Z,8.00
2023-02-18T03:20:09.257Z,7.90
2023-02-18T03:22:42.852Z,7.90
2023-02-18T03:25:13.101Z,7.90
2023-02-18T03:27:46.092Z,7.80
2023-02-18T03:30:18.119Z,7.80
2023-02-18T03:32:49.517Z,7.80
2023-02-18T03:35:19.534Z,7.70
2023-02-18T03:37:52.274Z,7.70
2023-02-18T03:40:20.653Z,7.70
2023-02-18T03:42:48.652Z,7.70
2023-02-18T03:45:16.910Z,7.60
2023-02-18T03:47:44.947Z,7.50
2023-02-18T03:50:12.940Z,7.50
2023-02-18T03:52:40.931Z,7.50
2023-02-18T03:55:10.838Z,7.40
2023-02-18T03:57:38.815Z,7.40
2023-02-18T04:00:07.977Z,7.40
2023-02-18T04:02:35.948Z,7.30
2023-02-18T04:05:03.948Z,7.30
2023-02-18T04:07:31.941Z,7.30
2023-02-18T04:09:59.922Z,7.30
2023-02-18T04:12:29.267Z,7.30
2023-02-18T04:14:57.272Z,7.20
2023-02-18T04:17:25.238Z,7.30
2023-02-18T04:19:53.182Z,7.20
2023-02-18T04:22:21.135Z,7.20
2023-02-18T04:24:49.091Z,7.20
2023-02-18T04:27:17.298Z,7.10
2023-02-18T04:29:46.975Z,7.10
2023-02-18T04:32:16.315Z,7.10
2023-02-18T04:34:44.455Z,7.10
2023-02-18T04:37:12.473Z,7.00
2023-02-18T04:39:40.579Z,7.00
2023-02-18T04:42:10.207Z,7.00
2023-02-18T04:44:38.777Z,6.90
2023-02-18T04:47:08.602Z,6.90
2023-02-18T04:49:39.258Z,6.90
2023-02-18T04:52:07.404Z,6.90
2023-02-18T04:54:35.394Z,6.90
2023-02-18T04:57:03.362Z,6.90
2023-02-18T04:59:31.717Z,6.90
2023-02-18T05:01:59.699Z,6.90
2023-02-18T05:04:29.351Z,6.80
2023-02-18T05:06:57.427Z,6.80
2023-02-18T05:09:25.584Z,6.80
2023-02-18T05:11:53.761Z,6.80
2023-02-18T05:14:22.416Z,6.80
2023-02-18T05:16:50.373Z,6.70
2023-02-18T05:19:18.496Z,6.70
2023-02-18T05:21:47.849Z,6.70
2023-02-18T05:24:15.844Z,6.70
2023-02-18T05:26:44.107Z,6.70
2023-02-18T05:29:12.094Z,6.70
2023-02-18T05:31:40.347Z,6.70
2023-02-18T05:34:08.442Z,6.60
2023-02-18T05:36:36.400Z,6.60
2023-02-18T05:39:07.199Z,6.60
2023-02-18T05:41:35.391Z,6.60
2023-02-18T05:44:20.577Z,6.60
2023-02-18T05:46:48.648Z,6.50
2023-02-18T05:49:17.968Z,6.60
2023-02-18T05:51:45.938Z,6.50
2023-02-18T05:54:15.678Z,6.50
2023-02-18T05:56:43.670Z,6.50
2023-02-18T05:59:11.764Z,6.40
2023-02-18T06:01:40.208Z,6.40
2023-02-18T06:04:08.383Z,6.40
2023-02-18T06:06:39.719Z,6.30
2023-02-18T06:09:08.274Z,6.40
2023-02-18T06:11:38.582Z,6.30
2023-02-18T06:14:07.259Z,6.30
2023-02-18T06:16:35.355Z,6.30
2023-02-18T06:19:03.342Z,6.20
2023-02-18T06:21:31.618Z,6.30
2023-02-18T06:23:59.877Z,6.30
2023-02-18T06:26:28.112Z,6.20
2023-02-18T06:28:57.505Z,6.30
2023-02-18T06:31:25.539Z,6.20
2023-02-18T06:33:53.582Z,6.20
2023-02-18T06:36:21.665Z,6.20
2023-02-18T06:38:49.659Z,6.20
2023-02-18T06:41:17.644Z,6.20
2023-02-18T06:43:45.632Z,6.20
2023-02-18T06:46:15.026Z,6.20
2023-02-18T06:48:43.332Z,6.20
2023-02-18T06:51:11.326Z,6.20
2023-02-18T06:53:39.375Z,6.20
2023-02-18T06:56:07.965Z,6.20
2023-02-18T06:58:36.253Z,6.20
2023-02-18T07:01:04.439Z,6.30
2023-02-18T07:03:34.380Z,6.30
2023-02-18T07:06:02.545Z,6.40
2023-02-18T07:08:33.047Z,6.40
2023-02-18T07:11:01.036Z,6.40
2023-02-18T07:13:29.023Z,6.40
2023-02-18T07:15:57.118Z,6.50
2023-02-18T07:18:25.131Z,6.50
2023-02-18T07:20:54.466Z,6.60
2023-02-18T07:23:22.472Z,6.60
2023-02-18T07:25:50.448Z,6.70
2023-02-18T07:28:18.850Z,6.70
2023-02-18T07:30:46.810Z,6.80
2023-02-18T07:33:15.131Z,6.80
2023-02-18T07:35:43.557Z,6.90
2023-02-18T07:38:15.903Z,6.90
2023-02-18T07:40:46.732Z,6.90
2023-02-18T07:43:14.707Z,7.00
2023-02-18T07:45:42.713Z,7.00
2023-02-18T07:48:10.876Z,7.00
2023-02-18T07:50:41.218Z,7.10
2023-02-18T07:53:09.617Z,7.10
2023-02-18T07:55:51.122Z,7.20
2023-02-18T07:58:21.050Z,7.20
2023-02-18T08:00:50.422Z,7.20
2023-02-18T08:03:19.566Z,7.20
2023-02-18T08:05:49.798Z,7.20
2023-02-18T08:08:21.371Z,7.30
2023-02-18T08:10:52.052Z,7.30
2023-02-18T08:13:20.461Z,7.30
2023-02-18T08:15:48.545Z,7.30
2023-02-18T08:18:20.988Z,7.40
2023-02-18T08:20:49.737Z,7.40
2023-02-18T08:23:22.310Z,7.50
2023-02-18T08:25:52.692Z,7.50
2023-02-18T08:28:24.212Z,7.50
2023-02-18T08:30:54.766Z,7.50
2023-02-18T08:33:24.297Z,7.60
2023-02-18T08:35:54.783Z,7.60
2023-02-18T08:38:24.004Z,7.70
2023-02-18T08:41:02.885Z,7.70
2023-02-18T08:43:30.875Z,7.70
2023-02-18T08:45:59.752Z,7.80
2023-02-18T08:48:29.757Z,7.90
2023-02-18T08:50:58.262Z,7.90
2023-02-18T08:53:26.669Z,8.00
2023-02-18T08:56:06.543Z,8.10
2023-02-18T08:58:40.128Z,8.20
2023-02-18T09:01:10.755Z,8.20
2023-02-18T09:03:41.827Z,8.30
2023-02-18T09:06:10.298Z,8.30
2023-02-18T09:08:38.265Z,8.30
2023-02-18T09:11:08.233Z,8.30
2023-02-18T09:13:42.691Z,8.30
2023-02-18T09:16:14.561Z,8.40
2023-02-18T09:18:43.108Z,8.40
2023-02-18T09:21:14.746Z,8.40
2023-02-18T09:23:43.701Z,8.40
2023-02-18T09:26:16.656Z,8.40
2023-02-18T09:28:45.301Z,8.50
2023-02-18T09:31:16.257Z,8.50
2023-02-18T09:33:46.890Z,8.60
2023-02-18T09:36:15.028Z,8.60
2023-02-18T09:38:43.342Z,8.60
2023-02-18T09:41:24.479Z,8.60
2023-02-18T09:43:59.743Z,8.70
2023-02-18T09:46:33.397Z,8.70
2023-02-18T09:49:04.823Z,8.70
2023-02-18T09:51:33.090Z,8.80
2023-02-18T09:54:01.431Z,8.80
2023-02-18T09:56:34.789Z,8.80
2023-02-18T09:59:06.822Z,8.80
2023-02-18T10:01:39.941Z,8.80
2023-02-18T10:04:15.797Z,8.80
2023-02-18T10:06:47.221Z,8.90
2023-02-18T10:09:22.580Z,8.90
2023-02-18T10:12:06.168Z,8.90
2023-02-18T10:14:35.864Z,8.90
2023-02-18T10:17:05.340Z,9.00
2023-02-18T10:19:37.563Z,9.10
2023-02-18T10:22:07.855Z,9.30
2023-02-18T10:24:43.802Z,9.30
2023-02-18T10:27:23.449Z,9.30
2023-02-18T10:29:51.513Z,9.30
2023-02-18T10:32:24.388Z,9.30
2023-02-18T10:35:00.266Z,9.30
2023-02-18T10:37:50.813Z,9.30
2023-02-18T10:40:22.549Z,9.30
2023-02-18T10:43:04.116Z,9.30
2023-02-18T10:45:45.011Z,9.30
2023-02-18T10:48:33.483Z,9.20
2023-02-18T10:51:13.890Z,9.30
2023-02-18T10:53:44.965Z,9.30
2023-02-18T10:56:35.881Z,9.30
2023-02-18T10:59:13.344Z,9.30
2023-02-18T11:01:44.785Z,9.20
2023-02-18T11:04:16.945Z,9.20
2023-02-18T11:06:47.478Z,9.20
2023-02-18T11:09:35.271Z,9.20
2023-02-18T11:12:09.188Z,9.20
2023-02-18T11:14:42.067Z,9.20
2023-02-18T11:17:17.490Z,9.20
2023-02-18T11:19:56.639Z,9.30
2023-02-18T11:22:26.702Z,9.30
2023-02-18T11:24:59.196Z,9.20
2023-02-18T11:27:32.569Z,9.20
2023-02-18T11:30:22.589Z,9.10
2023-02-18T11:32:53.139Z,9.10
2023-02-18T11:35:25.990Z,9.10
2023-02-18T11:37:55.776Z,9.10
2023-02-18T11:40:26.021Z,9.10
2023-02-18T11:43:03.476Z,9.10
2023-02-18T11:45:35.373Z,9.10
2023-02-18T11:48:09.136Z,9.10
2023-02-18T11:50:37.149Z,9.10
2023-02-18T11:53:28.695Z,9.00
2023-02-18T11:55:58.976Z,9.00
2023-02-18T11:58:27.540Z,8.90
2023-02-18T12:01:00.432Z,9.00
2023-02-18T12:03:43.969Z,9.00
2023-02-18T12:06:17.665Z,9.00
2023-02-18T12:08:51.282Z,9.10
2023-02-18T12:11:28.362Z,9.10
2023-02-18T12:13:58.970Z,9.00
2023-02-18T12:16:40.890Z,9.10
2023-02-18T12:19:22.970Z,9.00
2023-02-18T12:22:02.220Z,9.00
2023-02-18T12:24:50.130Z,8.90
2023-02-18T12:27:27.498Z,9.00
2023-02-18T12:30:19.994Z,9.00
2023-02-18T12:32:58.974Z,8.90
2023-02-18T12:35:50.119Z,8.90
2023-02-18T12:38:49.771Z,8.80
2023-02-18T12:41:34.204Z,8.70
2023-02-18T12:44:14.878Z,8.60
2023-02-18T12:46:55.947Z,8.60
2023-02-18T12:49:49.422Z,8.60
2023-02-18T12:52:28.938Z,8.60
2023-02-18T12:55:24.557Z,8.60
2023-02-18T12:58:01.246Z,8.60
2023-02-18T13:00:57.491Z,8.60
2023-02-18T13:04:14.866Z,8.50
2023-02-18T13:07:09.649Z,8.50
2023-02-18T13:09:53.781Z,8.50
2023-02-18T13:12:29.670Z,8.40
2023-02-18T13:15:02.803Z,8.40
2023-02-18T13:17:36.172Z,8.40
2023-02-18T13:20:08.859Z,8.40
2023-02-18T13:22:40.777Z,8.30
2023-02-18T13:25:14.640Z,8.30
2023-02-18T13:27:47.510Z,8.30
2023-02-18T13:30:24.729Z,8.30
2023-02-18T13:33:08.044Z,8.30
2023-02-18T13:35:41.460Z,8.20
2023-02-18T13:38:38.383Z,8.20
2023-02-18T13:41:07.044Z,8.20
2023-02-18T13:43:36.678Z,8.10
2023-02-18T13:46:14.439Z,8.10
2023-02-18T13:48:47.775Z,8.10
2023-02-18T13:51:29.139Z,8.00
2023-02-18T13:54:04.025Z,8.00
2023-02-18T13:56:34.728Z,8.00
2023-02-18T13:59:09.532Z,8.00
2023-02-18T14:01:43.517Z,8.00
2023-02-18T14:04:36.034Z,7.90
2023-02-18T14:07:44.187Z,7.90
2023-02-18T14:10:30.002Z,7.80
2023-02-18T14:13:24.063Z,7.80
2023-02-18T14:15:55.847Z,7.70
2023-02-18T14:18:37.094Z,7.70
2023-02-18T14:21:19.626Z,7.60
2023-02-18T14:24:07.153Z,7.60
2023-02-18T14:26:42.787Z,7.60
2023-02-18T14:29:23.605Z,7.60
2023-02-18T14:31:55.272Z,7.60
2023-02-18T14:34:54.095Z,7.50
2023-02-18T14:38:13.934Z,7.40
2023-02-18T14:41:05.522Z,7.40
2023-02-18T14:44:05.698Z,7.40
2023-02-18T14:46:44.711Z,7.40
2023-02-18T14:49:32.633Z,7.40
2023-02-18T14:52:01.125Z,7.30
2023-02-18T14:54:31.929Z,7.30
2023-02-18T14:57:02.695Z,7.30
2023-02-18T14:59:35.957Z,7.30
2023-02-18T15:02:15.984Z,7.30
2023-02-18T15:04:45.940Z,7.20
2023-02-18T15:07:14.223Z,7.20
2023-02-18T15:09:49.712Z,7.20
2023-02-18T15:12:20.452Z,7.20
2023-02-18T15:14:53.002Z,7.20
2023-02-18T15:17:24.556Z,7.20
2023-02-18T15:19:57.957Z,7.20
2023-02-18T15:22:27.927Z,7.10
2023-02-18T15:24:57.300Z,7.10
2023-02-18T15:27:29.086Z,7.10
2023-02-18T15:30:05.250Z,7.10
2023-02-18T15:32:34.031Z,7.10
2023-02-18T15:35:03.535Z,7.10
2023-02-18T15:37:32.388Z,7.00
2023-02-18T15:40:00.474Z,7.10
2023-02-18T15:42:31.420Z,7.00
2023-02-18T15:45:06.225Z,7.00
2023-02-18T15:47:34.881Z,7.00
2023-02-18T15:50:04.111Z,7.00
2023-02-18T15:52:34.796Z,7.00
2023-02-18T15:55:08.076Z,7.00
2023-02-18T15:57:38.269Z,6.90
2023-02-18T16:00:15.992Z,6.90
2023-02-18T16:03:10.889Z,6.90
2023-02-18T16:05:45.067Z,6.90
2023-02-18T16:08:16.936Z,6.90
2023-02-18T16:10:51.473Z,6.80
2023-02-18T16:13:22.627Z,6.80
2023-02-18T16:15:53.463Z,6.80
2023-02-18T16:18:28.882Z,6.80
2023-02-18T16:21:01.377Z,6.80
2023-02-18T16:23:36.279Z,6.80
2023-02-18T16:26:15.781Z,6.80
2023-02-18T16:28:44.742Z,6.70
2023-02-18T16:31:16.557Z,6.70
2023-02-18T16:33:44.609Z,6.70
2023-02-18T16:36:16.305Z,6.70
2023-02-18T16:38:44.845Z,6.70
2023-02-18T16:41:15.074Z,6.70
2023-02-18T16:43:43.681Z,6.70
2023-02-18T16:46:20.828Z,6.70
2023-02-18T16:48:51.811Z,6.70
2023-02-18T16:51:24.230Z,6.60
2023-02-18T16:53:52.677Z,6.60
2023-02-18T16:56:23.205Z,6.70
2023-02-18T16:58:51.738Z,6.70
2023-02-18T17:01:27.275Z,6.60
2023-02-18T17:03:55.831Z,6.70
2023-02-18T17:06:23.942Z,6.70
2023-02-18T17:08:52.272Z,6.70
2023-02-18T17:11:23.000Z,6.70
2023-02-18T17:13:51.797Z,6.70
2023-02-18T17:16:21.013Z,6.80
2023-02-18T17:18:50.490Z,6.80
2023-02-18T17:21:22.871Z,6.90
2023-02-18T17:23:51.653Z,6.90
2023-02-18T17:26:22.940Z,7.00
2023-02-18T17:28:51.533Z,7.00
2023-02-18T17:31:25.941Z,7.10
2023-02-18T17:33:56.351Z,7.10
2023-02-18T17:36:24.808Z,7.20
2023-02-18T17:38:53.929Z,7.30
2023-02-18T17:41:22.192Z,7.30
2023-02-18T17:43:50.238Z,7.40
2023-02-18T17:46:20.033Z,7.50
2023-02-18T17:48:48.479Z,7.60
2023-02-18T17:51:25.337Z,7.60
2023-02-18T17:53:53.377Z,7.70
2023-02-18T17:56:21.635Z,7.80
2023-02-18T17:58:49.726Z,7.80
2023-02-18T18:01:23.313Z,7.90
2023-02-18T18:03:51.396Z,7.90
2023-02-18T18:06:22.067Z,8.00
2023-02-18T18:08:50.504Z,8.00
2023-02-18T18:11:22.116Z,8.00
2023-02-18T18:13:50.537Z,8.10
2023-02-18T18:16:22.629Z,8.10
2023-02-18T18:18:50.630Z,8.10
2023-02-18T18:21:24.858Z,8.10
2023-02-18T18:23:52.930Z,8.20
2023-02-18T18:26:20.948Z,8.20
2023-02-18T18:28:48.982Z,8.20
2023-02-18T18:31:21.454Z,8.20
2023-02-18T18:33:53.068Z,8.20
2023-02-18T18:36:24.074Z,8.20
2023-02-18T18:38:52.516Z,8.20
2023-02-18T18:41:22.575Z,8.30
2023-02-18T18:43:51.005Z,8.20
2023-02-18T18:46:19.296Z,8.30
2023-02-18T18:48:47.693Z,8.30
2023-02-18T18:51:17.055Z,8.30
2023-02-18T18:53:46.460Z,8.30
2023-02-18T18:56:14.628Z,8.30
2023-02-18T18:58:42.674Z,8.30
2023-02-18T19:01:17.935Z,8.30
2023-02-18T19:03:46.901Z,8.30
2023-02-18T19:06:16.976Z,8.30
2023-02-18T19:08:47.702Z,8.30
2023-02-18T19:11:16.435Z,8.30
2023-02-18T19:13:45.716Z,8.30
2023-02-18T19:16:19.094Z,8.30
2023-02-18T19:18:48.010Z,8.30
2023-02-18T19:21:16.638Z,8.30
2023-02-18T19:23:46.061Z,8.30
2023-02-18T19:26:17.240Z,8.30
2023-02-18T19:28:45.649Z,8.30
2023-02-18T19:31:14.279Z,8.40
2023-02-18T19:33:45.529Z,8.40
2023-02-18T19:36:14.724Z,8.40
2023-02-18T19:38:42.895Z,8.40
2023-02-18T19:41:13.842Z,8.40
2023-02-18T19:43:42.864Z,8.40
2023-02-18T19:46:11.614Z,8.40
2023-02-18T19:48:39.795Z,8.40
2023-02-18T19:51:08.845Z,8.40
2023-02-18T19:53:37.107Z,8.40
2023-02-18T19:56:07.383Z,8.40
2023-02-18T19:58:37.375Z,8.40
2023-02-18T20:01:05.793Z,8.40
2023-02-18T20:03:34.155Z,8.40
2023-02-18T20:06:04.158Z,8.40
2023-02-18T20:08:39.768Z,8.40
2023-02-18T20:11:08.040Z,8.40
2023-02-18T20:13:39.098Z,8.30
2023-02-18T20:16:07.940Z,8.30
2023-02-18T20:18:38.620Z,8.30
2023-02-18T20:21:09.531Z,8.30
2023-02-18T20:23:37.740Z,8.30
2023-02-18T20:26:08.452Z,8.30
2023-02-18T20:28:38.055Z,8.30
2023-02-18T20:31:07.128Z,8.30
2023-02-18T20:33:35.317Z,8.30
2023-02-18T20:36:04.645Z,8.30
2023-02-18T20:38:34.967Z,8.30
2023-02-18T20:41:06.562Z,8.30
2023-02-18T20:43:34.705Z,8.30
2023-02-18T20:46:06.899Z,8.30
2023-02-18T20:48:35.293Z,8.30
2023-02-18T20:51:05.257Z,8.30
2023-02-18T20:53:34.315Z,8.20
2023-02-18T20:56:02.660Z,8.20
2023-02-18T20:58:31.233Z,8.20
2023-02-18T21:01:00.094Z,8.20
2023-02-18T21:03:30.117Z,8.20
2023-02-18T21:05:59.385Z,8.20
2023-02-18T21:08:27.628Z,8.20
2023-02-18T21:10:59.056Z,8.20
2023-02-18T21:13:27.321Z,8.20
2023-02-18T21:15:55.828Z,8.10
2023-02-18T21:18:25.443Z,8.10
2023-02-18T21:20:54.864Z,8.10
2023-02-18T21:23:23.319Z,8.10
2023-02-18T21:25:51.599Z,8.10
2023-02-18T21:28:19.602Z,8.10
2023-02-18T21:30:47.790Z,8.10
2023-02-18T21:33:17.234Z,8.10
2023-02-18T21:35:45.523Z,8.00
2023-02-18T21:38:14.901Z,8.00
2023-02-18T21:40:45.317Z,8.00
2023-02-18T21:43:13.609Z,8.00
2023-02-18T21:45:43.746Z,8.00
2023-02-18T21:48:29.065Z,7.90
2023-02-18T21:51:01.220Z,7.90
2023-02-18T21:53:30.600Z,7.90
2023-02-18T21:56:03.649Z,7.90
2023-02-18T21:58:31.978Z,7.90
2023-02-18T22:01:00.069Z,7.80
2023-02-18T22:03:28.107Z,7.80
2023-02-18T22:05:56.063Z,7.80
2023-02-18T22:08:24.060Z,7.80
2023-02-18T22:10:53.417Z,7.80
2023-02-18T22:13:21.390Z,7.80
2023-02-18T22:15:57.191Z,7.80
2023-02-18T22:18:25.388Z,7.80
2023-02-18T22:20:53.372Z,7.70
2023-02-18T22:23:22.436Z,7.70
2023-02-18T22:25:52.214Z,7.70
2023-02-18T22:28:22.597Z,7.70
2023-02-18T22:30:50.572Z,7.60
2023-02-18T22:33:20.431Z,7.60
2023-02-18T22:35:48.407Z,7.60
2023-02-18T22:38:17.831Z,7.60
2023-02-18T22:40:45.865Z,7.60
2023-02-18T22:43:13.849Z,7.50
2023-02-18T22:45:43.209Z,7.60
2023-02-18T22:48:11.232Z,7.60
2023-02-18T22:50:39.199Z,7.50
2023-02-18T22:53:07.177Z,7.50
2023-02-18T22:55:35.179Z,7.50
2023-02-18T22:58:03.170Z,7.50
2023-02-18T23:00:31.157Z,7.50
2023-02-18T23:03:00.483Z,7.50
2023-02-18T23:05:28.452Z,7.40
2023-02-18T23:07:56.606Z,7.40
2023-02-18T23:10:24.573Z,7.40
2023-02-18T23:12:52.523Z,7.40
2023-02-18T23:15:20.481Z,7.40
2023-02-18T23:17:50.135Z,7.40
2023-02-18T23:20:41.079Z,7.40
2023-02-18T23:23:09.059Z,7.40
2023-02-18T23:25:37.105Z,7.40
2023-02-18T23:28:05.265Z,7.40
2023-02-18T23:30:33.402Z,7.30
2023-02-18T23:33:01.411Z,7.30
2023-02-18T23:35:30.753Z,7.30
2023-02-18T23:38:04.735Z,7.30
2023-02-18T23:40:33.189Z,7.20
2023-02-18T23:43:01.126Z,7.20
2023-02-18T23:45:29.227Z,7.30
2023-02-18T23:47:57.179Z,7.20
2023-02-18T23:50:25.471Z,7.20
2023-02-18T23:52:54.765Z,7.20
2023-02-18T23:55:22.741Z,7.20
2023-02-18T23:57:50.716Z,7.20
